createdAt,value
2023-05-19T00:05:55.719Z,14.65
2023-05-19T00:10:59.102Z,13.60
2023-05-19T00:16:03.690Z,17.23
2023-05-19T00:21:06.491Z,12.18
2023-05-19T00:26:09.139Z,15.37
2023-05-19T00:31:13.189Z,14.63
2023-05-19T00:36:16.014Z,14.70
2023-05-19T00:41:19.006Z,15.03
2023-05-19T00:46:23.109Z,18.60
2023-05-19T00:51:29.666Z,16.83
2023-05-19T00:56:32.832Z,15.82
2023-05-19T01:01:37.245Z,17.10
2023-05-19T01:06:40.166Z,19.27
2023-05-19T01:11:43.328Z,13.23
2023-05-19T01:16:56.579Z,17.23
2023-05-19T01:22:24.025Z,16.83
2023-05-19T01:27:45.472Z,19.17
2023-05-19T01:32:50.204Z,20.13
2023-05-19T01:37:55.447Z,17.90
2023-05-19T01:43:00.193Z,19.02
2023-05-19T01:48:05.767Z,18.15
2023-05-19T01:53:09.592Z,17.05
2023-05-19T01:58:22.507Z,16.93
2023-05-19T02:03:38.418Z,18.30
2023-05-19T02:08:44.521Z,21.55
2023-05-19T02:13:51.372Z,20.15
2023-05-19T02:18:56.555Z,20.60
2023-05-19T02:23:59.272Z,21.33
2023-05-19T02:29:01.863Z,22.08
2023-05-19T02:34:06.137Z,22.95
2023-05-19T02:39:08.828Z,23.98
2023-05-19T02:44:11.534Z,20.70
2023-05-19T02:49:15.755Z,33.72
2023-05-19T02:54:18.519Z,26.50
2023-05-19T02:59:22.051Z,23.03
2023-05-19T03:04:26.848Z,27.20
2023-05-19T03:09:29.546Z,30.92
2023-05-19T03:14:33.956Z,28.40
2023-05-19T03:19:38.071Z,28.38
2023-05-19T03:24:41.010Z,31.13
2023-05-19T03:29:43.649Z,27.63
2023-05-19T03:34:47.734Z,28.08
2023-05-19T03:39:51.793Z,29.88
2023-05-19T03:44:54.498Z,31.95
2023-05-19T03:49:58.552Z,42.37
2023-05-19T03:55:01.212Z,38.75
2023-05-19T04:00:06.093Z,30.00
2023-05-19T04:05:11.659Z,38.78
2023-05-19T04:10:14.669Z,34.55
2023-05-19T04:15:17.504Z,30.95
2023-05-19T04:20:21.573Z,31.07
2023-05-19T04:25:25.204Z,33.33
2023-05-19T04:30:28.629Z,34.10
2023-05-19T04:35:32.741Z,32.72
2023-05-19T04:40:35.504Z,35.20
2023-05-19T04:45:42.449Z,29.83
2023-05-19T04:50:48.778Z,26.48
2023-05-19T04:55:51.625Z,18.15
2023-05-19T05:00:55.706Z,14.73
2023-05-19T05:05:59.969Z,17.63
2023-05-19T05:11:03.153Z,16.00
2023-05-19T05:16:08.367Z,17.88
2023-05-19T05:21:13.394Z,13.75
2023-05-19T05:26:19.668Z,13.68
2023-05-19T05:31:22.428Z,12.48
2023-05-19T05:36:26.514Z,9.57
2023-05-19T05:41:35.010Z,9.77
2023-05-19T05:46:38.139Z,9.55
2023-05-19T05:56:57.747Z,9.80
2023-05-19T06:02:00.885Z,8.27
2023-05-19T06:07:05.147Z,9.10
2023-05-19T06:12:08.226Z,7.40
2023-05-19T06:17:10.895Z,6.80
2023-05-19T06:22:14.991Z,7.28
2023-05-19T06:27:17.676Z,7.90
2023-05-19T06:32:20.400Z,10.43
2023-05-19T06:37:25.081Z,7.10
2023-05-19T06:42:28.802Z,8.50
2023-05-19T06:47:31.605Z,8.38
2023-05-19T06:52:35.582Z,6.20
2023-05-19T06:57:38.386Z,5.85
2023-05-19T07:02:41.184Z,11.27
2023-05-19T07:07:45.290Z,9.65
2023-05-19T07:12:48.000Z,6.88
2023-05-19T07:17:50.839Z,5.20
2023-05-19T07:22:54.880Z,6.22
2023-05-19T07:27:57.740Z,6.28
2023-05-19T07:33:00.600Z,8.05
2023-05-19T07:38:04.677Z,8.00
2023-05-19T07:43:07.406Z,8.05
2023-05-19T07:48:10.179Z,5.80
2023-05-19T07:53:14.204Z,5.97
2023-05-19T07:58:17.456Z,9.27
2023-05-19T08:03:20.676Z,5.93
2023-05-19T08:08:25.177Z,6.60
2023-05-19T08:13:27.933Z,4.90
2023-05-19T08:18:30.656Z,4.63
2023-05-19T08:23:34.759Z,5.55
2023-05-19T08:28:37.422Z,4.47
2023-05-19T08:33:40.113Z,3.97
2023-05-19T08:38:44.307Z,5.00
2023-05-19T08:43:46.913Z,7.97
2023-05-19T08:48:50.508Z,8.13
2023-05-19T08:54:01.172Z,3.00
2023-05-19T08:59:04.155Z,5.10
2023-05-19T09:04:07.928Z,6.20
2023-05-19T09:09:12.482Z,5.15
2023-05-19T09:14:15.066Z,5.95
2023-05-19T09:19:17.900Z,5.40
2023-05-19T09:24:26.674Z,3.47
2023-05-19T09:29:29.324Z,6.30
2023-05-19T09:34:32.072Z,4.55
2023-05-19T09:39:36.177Z,4.63
2023-05-19T09:44:38.813Z,4.03
2023-05-19T09:49:48.463Z,6.63
2023-05-19T09:54:52.699Z,4.10
2023-05-19T09:59:58.120Z,4.80
2023-05-19T10:05:02.572Z,6.05
2023-05-19T10:10:12.599Z,5.25
2023-05-19T10:15:20.566Z,7.30
2023-05-19T10:20:27.762Z,3.00
2023-05-19T10:25:39.623Z,4.13
2023-05-19T10:30:46.896Z,4.47
2023-05-19T10:36:14.399Z,5.90
2023-05-19T10:41:28.785Z,3.90
2023-05-19T12:15:09.846Z,7.6
2023-05-19T13:18:32.051Z,4.6
2023-05-19T13:23:29.570Z,3.5
2023-05-19T13:28:29.387Z,4.3
2023-05-19T13:32:45.742Z,5.6
2023-05-19T13:37:46.262Z,3.9
2023-05-19T13:42:46.226Z,4.3
2023-05-19T13:47:46.498Z,2.5
2023-05-19T13:52:47.250Z,4.8
2023-05-19T13:57:47.141Z,4.3
2023-05-19T14:02:47.472Z,3.6
2023-05-19T14:07:47.674Z,5.5
2023-05-19T14:13:12.195Z,2.9
2023-05-19T14:17:48.929Z,4.1
2023-05-19T14:22:48.621Z,3.3
2023-05-19T14:27:48.837Z,3.7
2023-05-19T14:32:49.153Z,3.7
2023-05-19T14:37:49.371Z,4.5
2023-05-19T14:42:49.758Z,3.9
2023-05-19T14:47:50.064Z,5.4
2023-05-19T14:52:50.232Z,3.2
2023-05-19T14:57:50.535Z,3.6
2023-05-19T15:02:50.906Z,4.4
2023-05-19T15:07:51.216Z,3.9
2023-05-19T15:12:51.502Z,4.1
2023-05-19T15:17:51.913Z,4.1
2023-05-19T15:22:52.347Z,4.2
2023-05-19T15:27:52.560Z,3.6
2023-05-19T15:32:52.912Z,3.5
2023-05-19T15:37:53.216Z,2.8
2023-05-19T15:42:53.556Z,4
2023-05-19T15:47:54.345Z,4
2023-05-19T15:52:54.170Z,3.5
2023-05-19T15:57:54.416Z,5.4
2023-05-19T16:02:54.806Z,3.3
2023-05-19T16:08:02.489Z,4.2
2023-05-19T16:12:55.207Z,3.9
2023-05-19T16:17:55.566Z,3.8
2023-05-19T16:22:55.887Z,3.4
2023-05-19T16:27:56.257Z,3.5
2023-05-19T16:32:59.667Z,4.7
2023-05-19T16:37:56.981Z,5.7
2023-05-19T16:42:57.405Z,5.4
2023-05-19T16:47:57.683Z,4.9
2023-05-19T16:52:57.788Z,3.3
2023-05-19T16:57:58.086Z,4.7
2023-05-19T17:02:58.595Z,3.2
2023-05-19T17:07:58.644Z,3.8
2023-05-19T17:12:58.763Z,2.6
2023-05-19T17:17:58.997Z,5
2023-05-19T17:22:59.100Z,4.1
2023-05-19T17:27:59.160Z,3.4
2023-05-19T17:32:59.472Z,2.7
2023-05-19T17:38:00.583Z,3.5
2023-05-19T17:42:59.808Z,4.2
2023-05-19T17:48:00.166Z,6.4
2023-05-19T17:53:00.426Z,3.7
2023-05-19T17:58:00.483Z,3.8
2023-05-19T18:03:01.626Z,2.5
2023-05-19T18:08:03.468Z,3.1
2023-05-19T18:13:00.898Z,4.3
2023-05-19T18:18:00.576Z,2.9
2023-05-19T18:23:00.958Z,4.3
2023-05-19T18:28:00.516Z,4
2023-05-19T18:33:01.920Z,2.7
2023-05-19T18:38:02.376Z,3.1
2023-05-19T18:43:00.574Z,3.4
2023-05-19T18:48:00.643Z,4.1
2023-05-19T18:53:00.544Z,3.5
2023-05-19T18:58:01.222Z,2.2
2023-05-19T19:03:00.380Z,3.1
2023-05-19T19:08:00.321Z,2.7
2023-05-19T19:13:00.250Z,2.5
2023-05-19T19:18:00.266Z,4
2023-05-19T19:23:01.775Z,5.6
2023-05-19T19:28:00.156Z,2.8
2023-05-19T19:33:00.152Z,3.2
2023-05-19T19:37:59.884Z,2.3
2023-05-19T19:42:59.739Z,3.6
2023-05-19T19:47:59.753Z,3.1
2023-05-19T19:52:59.474Z,4.9
2023-05-19T19:57:59.388Z,3
2023-05-19T20:07:59.079Z,3.2
2023-05-19T20:12:59.390Z,4.4
2023-05-19T20:17:58.835Z,3.5
2023-05-19T20:22:58.634Z,2.4
2023-05-19T20:27:58.589Z,5.5
2023-05-19T20:32:58.589Z,3.2
2023-05-19T20:37:58.292Z,5
2023-05-19T20:42:58.197Z,4.5
2023-05-19T20:47:59.334Z,4.4
2023-05-19T20:52:57.978Z,7.9
2023-05-19T20:57:57.803Z,5.6
2023-05-19T21:02:57.842Z,6.5
2023-05-19T21:07:57.486Z,6.5
2023-05-19T21:12:58.819Z,7.4
2023-05-19T21:17:57.381Z,8.2
2023-05-19T21:22:57.333Z,6.2
2023-05-19T21:27:58.086Z,9.5
2023-05-19T21:32:56.747Z,7
2023-05-19T21:37:56.549Z,5.7
2023-05-19T21:42:56.453Z,5.8
2023-05-19T21:47:56.221Z,5.4
2023-05-19T21:52:56.057Z,8.8
2023-05-19T21:57:55.831Z,7.8
2023-05-19T22:02:55.784Z,7.8
2023-05-19T22:07:55.601Z,6
2023-05-19T22:12:55.421Z,9
2023-05-19T22:17:55.115Z,6.5
2023-05-19T22:22:54.924Z,9.7
2023-05-19T22:27:54.706Z,6.5
2023-05-19T22:32:54.478Z,6.5
2023-05-19T22:37:54.304Z,8.1
2023-05-19T22:42:54.017Z,6.6
2023-05-19T22:47:55.064Z,7.2
2023-05-19T22:52:53.565Z,7.2
2023-05-19T22:57:53.293Z,7.9
2023-05-19T23:02:53.115Z,7.3
2023-05-19T23:07:52.848Z,5.6
2023-05-19T23:12:52.640Z,9.3
2023-05-19T23:17:52.445Z,10.7
2023-05-19T23:22:52.123Z,9.3
2023-05-19T23:27:52.026Z,9.2
2023-05-19T23:32:52.906Z,14.4
2023-05-19T23:37:51.781Z,8.6
2023-05-19T23:42:51.355Z,10.1
2023-05-19T23:47:51.440Z,7.5
2023-05-19T23:52:50.871Z,6.6
2023-05-19T23:57:50.870Z,7.9
